createdAt,value
2017-10-15T00:04:34.241Z,76.50
2017-10-15T00:10:03.147Z,76.70
2017-10-15T00:15:31.278Z,76.60
2017-10-15T00:20:59.432Z,76.70
2017-10-15T00:26:28.338Z,76.80
2017-10-15T00:31:56.480Z,76.80
2017-10-15T00:37:25.391Z,76.90
2017-10-15T00:42:54.101Z,76.90
2017-10-15T00:48:22.246Z,76.90
2017-10-15T00:53:50.396Z,77.70
2017-10-15T00:59:18.527Z,76.90
2017-10-15T01:04:46.663Z,76.90
2017-10-15T01:10:15.587Z,77.20
2017-10-15T01:15:43.718Z,77.20
2017-10-15T01:21:11.878Z,77.20
2017-10-15T01:26:40.012Z,77.20
2017-10-15T01:32:08.139Z,77.20
2017-10-15T01:37:36.351Z,77.20
2017-10-15T01:43:04.460Z,77.30
2017-10-15T01:48:32.654Z,77.30
2017-10-15T01:54:00.877Z,77.20
2017-10-15T01:59:29.045Z,77.30
2017-10-15T02:04:57.975Z,77.30
2017-10-15T02:10:26.125Z,77.30
2017-10-15T02:15:54.287Z,77.40
2017-10-15T02:21:22.427Z,77.40
2017-10-15T02:26:50.558Z,77.40
2017-10-15T02:32:18.699Z,77.50
2017-10-15T02:37:46.822Z,77.50
2017-10-15T02:43:14.960Z,77.40
2017-10-15T02:48:43.103Z,77.50
2017-10-15T02:54:11.248Z,77.50
2017-10-15T02:59:39.368Z,77.50
2017-10-15T03:05:07.498Z,77.50
2017-10-15T03:10:36.412Z,77.60
2017-10-15T03:16:04.550Z,77.50
2017-10-15T03:21:32.677Z,77.50
2017-10-15T03:27:00.816Z,77.60
2017-10-15T03:32:28.939Z,77.50
2017-10-15T03:37:57.075Z,77.70
2017-10-15T03:43:25.237Z,77.70
2017-10-15T03:48:53.373Z,77.90
2017-10-15T03:54:21.654Z,78.10
2017-10-15T03:59:49.790Z,78.10
2017-10-15T04:05:17.899Z,78.40
2017-10-15T04:10:46.035Z,78.60
2017-10-15T04:16:14.159Z,78.80
2017-10-15T04:21:42.288Z,78.90
2017-10-15T04:27:11.177Z,79.10
2017-10-15T04:32:39.316Z,79.10
2017-10-15T04:38:07.475Z,79.20
2017-10-15T04:43:36.353Z,79.00
2017-10-15T04:49:05.259Z,79.00
2017-10-15T04:54:33.559Z,79.00
2017-10-15T05:00:01.681Z,78.90
2017-10-15T05:05:29.821Z,78.90
2017-10-15T05:10:57.965Z,78.70
2017-10-15T05:16:26.123Z,78.70
2017-10-15T05:21:55.025Z,79.00
2017-10-15T05:27:23.194Z,79.00
2017-10-15T05:32:51.322Z,79.10
2017-10-15T05:38:20.225Z,79.30
2017-10-15T05:43:48.341Z,79.30
2017-10-15T05:49:17.256Z,79.30
2017-10-15T05:54:46.164Z,79.40
2017-10-15T06:00:14.317Z,79.30
2017-10-15T06:05:42.466Z,79.40
2017-10-15T06:11:10.620Z,79.30
2017-10-15T06:16:38.779Z,79.20
2017-10-15T06:22:06.914Z,79.20
2017-10-15T06:27:35.048Z,79.10
2017-10-15T06:33:03.174Z,78.90
2017-10-15T06:38:31.323Z,78.80
2017-10-15T06:43:59.472Z,78.70
2017-10-15T06:49:27.613Z,78.70
2017-10-15T06:54:55.797Z,77.50
2017-10-15T07:00:24.107Z,77.50
2017-10-15T07:05:52.264Z,77.50
2017-10-15T07:11:20.395Z,77.40
2017-10-15T07:16:48.596Z,77.20
2017-10-15T07:22:16.745Z,77.20
2017-10-15T07:27:44.901Z,77.00
2017-10-15T07:33:13.051Z,76.60
2017-10-15T07:38:42.409Z,76.50
2017-10-15T07:44:11.451Z,76.80
2017-10-15T07:49:39.613Z,76.00
2017-10-15T07:55:07.781Z,76.00
2017-10-15T08:00:35.905Z,75.60
2017-10-15T08:06:04.213Z,76.10
2017-10-15T08:11:34.704Z,75.20
2017-10-15T08:17:02.893Z,75.10
2017-10-15T08:22:31.797Z,74.10
2017-10-15T08:28:00.715Z,73.80
2017-10-15T08:33:28.915Z,73.60
2017-10-15T08:38:57.082Z,74.00
2017-10-15T08:44:25.291Z,73.60
2017-10-15T08:49:53.525Z,73.10
2017-10-15T08:55:21.707Z,72.20
2017-10-15T09:00:51.591Z,71.80
2017-10-15T09:06:19.819Z,71.40
2017-10-15T09:11:48.425Z,70.90
2017-10-15T09:17:16.725Z,70.10
2017-10-15T09:22:45.403Z,69.60
2017-10-15T09:28:13.567Z,69.00
2017-10-15T09:33:42.496Z,67.80
2017-10-15T09:39:10.667Z,67.70
2017-10-15T09:44:38.879Z,67.10
2017-10-15T09:50:07.099Z,66.20
2017-10-15T09:55:35.331Z,65.90
2017-10-15T10:01:03.464Z,65.40
2017-10-15T10:06:31.873Z,64.50
2017-10-15T10:12:03.513Z,64.60
2017-10-15T10:17:31.707Z,63.40
2017-10-15T10:22:59.849Z,62.70
2017-10-15T10:28:28.788Z,61.70
2017-10-15T10:33:57.110Z,61.60
2017-10-15T10:39:26.216Z,60.90
2017-10-15T10:44:54.426Z,60.40
2017-10-15T10:50:23.355Z,59.10
2017-10-15T10:55:51.507Z,59.00
2017-10-15T11:01:19.644Z,58.50
2017-10-15T11:06:47.796Z,58.70
2017-10-15T11:12:15.934Z,57.80
2017-10-15T11:17:44.866Z,56.30
2017-10-15T11:23:13.093Z,56.20
2017-10-15T11:28:41.242Z,56.40
2017-10-15T11:34:09.398Z,55.70
2017-10-15T11:39:37.538Z,55.70
2017-10-15T11:45:06.433Z,55.40
2017-10-15T11:50:34.672Z,55.40
2017-10-15T11:56:03.626Z,55.30
2017-10-15T12:01:31.992Z,55.30
2017-10-15T12:07:01.152Z,55.40
2017-10-15T12:12:29.347Z,54.90
2017-10-15T12:17:58.272Z,54.20
2017-10-15T12:23:26.436Z,54.00
2017-10-15T12:28:54.598Z,54.00
2017-10-15T12:34:22.791Z,54.30
2017-10-15T12:39:50.923Z,54.40
2017-10-15T12:45:19.090Z,53.90
2017-10-15T12:50:47.239Z,54.20
2017-10-15T12:56:15.384Z,54.50
2017-10-15T13:01:43.593Z,53.30
2017-10-15T13:07:11.737Z,51.20
2017-10-15T13:12:39.902Z,50.40
2017-10-15T13:18:08.069Z,50.90
2017-10-15T13:23:36.222Z,51.70
2017-10-15T13:29:06.264Z,49.00
2017-10-15T13:34:34.419Z,48.90
2017-10-15T13:40:02.615Z,46.90
2017-10-15T13:45:30.825Z,44.80
2017-10-15T13:50:59.123Z,42.50
2017-10-15T13:56:27.705Z,40.00
2017-10-15T14:01:56.683Z,37.70
2017-10-15T14:07:24.875Z,37.60
2017-10-15T14:12:53.101Z,36.30
2017-10-15T14:18:21.341Z,36.00
2017-10-15T14:23:49.541Z,35.80
2017-10-15T14:29:18.459Z,35.90
2017-10-15T14:34:46.604Z,35.80
2017-10-15T14:40:14.769Z,35.50
2017-10-15T14:45:43.926Z,35.50
2017-10-15T14:51:12.183Z,36.10
2017-10-15T14:56:40.396Z,36.30
2017-10-15T15:02:08.539Z,36.20
2017-10-15T15:07:36.751Z,36.30
2017-10-15T15:13:04.905Z,35.90
2017-10-15T15:18:33.047Z,36.40
2017-10-15T15:24:01.236Z,39.30
2017-10-15T15:29:30.178Z,43.50
2017-10-15T15:34:58.328Z,43.40
2017-10-15T15:40:26.491Z,45.70
2017-10-15T15:45:54.648Z,47.60
2017-10-15T15:51:22.888Z,49.20
2017-10-15T15:56:51.043Z,50.40
2017-10-15T16:02:19.285Z,51.70
2017-10-15T16:07:48.570Z,53.00
2017-10-15T16:13:16.767Z,53.90
2017-10-15T16:18:45.688Z,55.80
2017-10-15T16:24:13.838Z,55.90
2017-10-15T16:29:42.018Z,56.70
2017-10-15T16:35:10.202Z,57.60
2017-10-15T16:40:39.034Z,58.30
2017-10-15T16:46:08.667Z,59.10
2017-10-15T16:51:36.835Z,59.80
2017-10-15T16:57:05.002Z,60.60
2017-10-15T17:02:33.182Z,61.40
2017-10-15T17:08:01.379Z,62.10
2017-10-15T17:13:29.537Z,63.30
2017-10-15T17:18:57.734Z,63.20
2017-10-15T17:24:25.914Z,63.70
2017-10-15T17:29:55.356Z,64.80
2017-10-15T17:35:23.564Z,64.70
2017-10-15T17:40:51.930Z,65.30
2017-10-15T17:46:21.002Z,65.80
2017-10-15T17:51:50.036Z,66.90
2017-10-15T17:57:18.226Z,67.50
2017-10-15T18:02:46.695Z,67.30
2017-10-15T18:08:14.860Z,67.40
2017-10-15T18:13:43.036Z,67.90
2017-10-15T18:19:11.974Z,68.70
2017-10-15T18:24:40.207Z,68.70
2017-10-15T18:30:08.373Z,68.80
2017-10-15T18:35:36.764Z,69.20
2017-10-15T18:41:04.956Z,69.60
2017-10-15T18:46:33.274Z,69.90
2017-10-15T18:52:01.470Z,70.30
2017-10-15T18:57:29.721Z,70.60
2017-10-15T19:02:58.720Z,71.00
2017-10-15T19:08:27.136Z,71.10
2017-10-15T19:13:55.340Z,71.30
2017-10-15T19:19:23.512Z,71.50
2017-10-15T19:24:51.669Z,71.60
2017-10-15T19:30:19.953Z,71.90
2017-10-15T19:35:48.227Z,72.00
2017-10-15T19:41:16.402Z,72.30
2017-10-15T19:46:45.377Z,72.60
2017-10-15T19:52:13.599Z,72.60
2017-10-15T19:57:41.748Z,72.60
2017-10-15T20:03:09.917Z,72.90
2017-10-15T20:08:38.143Z,73.30
2017-10-15T20:14:06.415Z,73.50
2017-10-15T20:19:34.664Z,73.80
2017-10-15T20:25:02.869Z,73.90
2017-10-15T20:30:31.038Z,73.90
2017-10-15T20:35:59.194Z,74.00
2017-10-15T20:41:27.429Z,74.00
2017-10-15T20:46:56.681Z,74.20
2017-10-15T20:52:25.689Z,74.30
2017-10-15T20:57:54.116Z,74.30
2017-10-15T21:03:24.418Z,75.20
2017-10-15T21:08:54.873Z,74.80
2017-10-15T21:14:23.237Z,74.80
2017-10-15T21:19:51.394Z,74.90
2017-10-15T21:25:20.578Z,75.00
2017-10-15T21:30:48.707Z,75.00
2017-10-15T21:36:16.857Z,75.10
2017-10-15T21:41:45.801Z,75.10
2017-10-15T21:47:13.956Z,75.00
2017-10-15T21:52:42.163Z,74.90
2017-10-15T21:58:10.359Z,74.90
2017-10-15T22:03:38.491Z,75.00
2017-10-15T22:09:06.651Z,75.10
2017-10-15T22:14:34.793Z,75.10
2017-10-15T22:20:02.941Z,75.20
2017-10-15T22:25:31.183Z,76.10
2017-10-15T22:31:00.124Z,75.60
2017-10-15T22:36:28.390Z,75.40
2017-10-15T22:41:56.580Z,75.60
2017-10-15T22:47:25.510Z,75.70
2017-10-15T22:52:53.683Z,75.80
2017-10-15T22:58:21.814Z,75.70
2017-10-15T23:03:49.974Z,75.50
2017-10-15T23:09:18.111Z,75.80
2017-10-15T23:14:47.024Z,76.30
2017-10-15T23:20:15.197Z,76.30
2017-10-15T23:25:43.359Z,76.50
2017-10-15T23:31:11.511Z,76.40
2017-10-15T23:36:39.699Z,76.60
2017-10-15T23:42:07.854Z,76.60
2017-10-15T23:47:36.773Z,76.40
2017-10-15T23:53:04.941Z,76.30
2017-10-15T23:58:33.235Z,76.40
